Terminal Aerodrome Forecast
Issued by NWS

Home | Current Version | Previous Version | Text Only | Print | Product List | Glossary On
Versions: 1 2 3 4 5 6 7 8 9 10 11 12 13 14
000
FTUS46 KMTR 261100
TAFOAK
TAF
KOAK 261120Z 2612/2718 06004KT P6SM SCT250
     FM261400 16004KT 6SM BR FEW010 SCT250
     FM262000 29005KT 6SM HZ BKN250
     FM270400 VRB03KT P6SM SCT120 BKN250=

USA.gov is the U.S. government's official web portal to all federal, state and local government web resources and services.